Station Historical Data
Daily Summary for June 20, 2012 Units:  English    Metric   Both
« Previous Day
Next Day »
Daily Weekly Monthly Yearly Custom
  High: Low: Average:
Temperature: 88.1 °F 66.1 °F 77.9 °F
Dew Point: 68.6 °F 62.0 °F 64.8 °F
Humidity: 89% 44% 66%
Wind Speed: 13.0mph 0.0mph 2.6mph
Wind Gust: 13.0mph - -
Wind- - SE
Pressure: 30.10 in 29.98 in -
Precipitation: 0.00 in    
Historical Graphs
 
 
Tabular Data for June 20, 2012
Time Temperature Dew Point Pressure Wind Wind Speed Wind Gust Humidity Rainfall Rate (Hourly) Conditions
00:00 73.7 °F 65.3 °F 30.05 in ESE 1.0 mph 2.0 mph 75% 0.00 in
00:01 73.8 °F 65.4 °F 30.05 in ESE 1.0 mph 2.0 mph 75% 0.00 in
00:06 73.9 °F 65.1 °F 30.05 in ESE 1.0 mph 2.0 mph 74% 0.00 in
00:11 73.9 °F 65.1 °F 30.05 in ESE 1.0 mph 2.0 mph 74% 0.00 in
00:16 73.6 °F 64.8 °F 30.05 in SE 2.0 mph 2.0 mph 74% 0.00 in
00:21 73.8 °F 65.0 °F 30.05 in ESE 3.0 mph 3.0 mph 74% 0.00 in
00:26 73.9 °F 65.1 °F 30.05 in ESE 2.0 mph 3.0 mph 74% 0.00 in
00:31 73.5 °F 64.7 °F 30.05 in ESE 1.0 mph 2.0 mph 74% 0.00 in
00:36 73.3 °F 64.5 °F 30.05 in ESE 1.0 mph 1.0 mph 74% 0.00 in
00:41 73.3 °F 64.9 °F 30.05 in SE 1.0 mph 2.0 mph 75% 0.00 in
00:46 73.1 °F 64.7 °F 30.05 in ESE 1.0 mph 3.0 mph 75% 0.00 in
00:51 73.1 °F 64.7 °F 30.05 in SE 1.0 mph 1.0 mph 75% 0.00 in
00:56 72.8 °F 64.8 °F 30.05 in SE 1.0 mph 1.0 mph 76% 0.00 in
01:01 72.6 °F 64.6 °F 30.05 in ESE 2.0 mph 2.0 mph 76% 0.00 in
01:06 72.7 °F 64.7 °F 30.05 in ESE 2.0 mph 2.0 mph 76% 0.00 in
01:11 72.9 °F 64.5 °F 30.05 in ESE 1.0 mph 2.0 mph 75% 0.00 in
01:16 72.9 °F 64.5 °F 30.05 in ESE 1.0 mph 2.0 mph 75% 0.00 in
01:21 72.5 °F 64.5 °F 30.05 in SE 1.0 mph 2.0 mph 76% 0.00 in
01:26 72.4 °F 64.4 °F 30.05 in ESE 1.0 mph 2.0 mph 76% 0.00 in
01:31 72.4 °F 64.4 °F 30.05 in ESE 1.0 mph 2.0 mph 76% 0.00 in
01:36 72.6 °F 64.2 °F 30.05 in SE 1.0 mph 2.0 mph 75% 0.00 in
01:41 72.6 °F 64.2 °F 30.05 in ESE 2.0 mph 3.0 mph 75% 0.00 in
01:46 72.7 °F 64.3 °F 30.05 in ESE 2.0 mph 3.0 mph 75% 0.00 in
01:51 72.7 °F 64.3 °F 30.05 in ESE 3.0 mph 3.0 mph 75% 0.00 in
01:56 72.8 °F 64.0 °F 30.04 in ESE 3.0 mph 3.0 mph 74% 0.00 in
02:01 72.8 °F 64.0 °F 30.05 in SE 3.0 mph 3.0 mph 74% 0.00 in
02:06 72.7 °F 63.9 °F 30.05 in SE 2.0 mph 3.0 mph 74% 0.00 in
02:11 72.5 °F 64.1 °F 30.04 in ESE 2.0 mph 2.0 mph 75% 0.00 in
02:16 72.2 °F 64.2 °F 30.04 in ESE 2.0 mph 3.0 mph 76% 0.00 in
02:21 72.1 °F 64.1 °F 30.04 in SE 1.0 mph 3.0 mph 76% 0.00 in
02:26 72.1 °F 64.1 °F 30.04 in SE 1.0 mph 2.0 mph 76% 0.00 in
02:32 72.1 °F 64.1 °F 30.04 in SE 2.0 mph 2.0 mph 76% 0.00 in
02:37 72.2 °F 64.2 °F 30.04 in ESE 2.0 mph 3.0 mph 76% 0.00 in
02:42 72.1 °F 64.1 °F 30.04 in ESE 2.0 mph 2.0 mph 76% 0.00 in
02:47 71.9 °F 63.9 °F 30.04 in ESE 2.0 mph 2.0 mph 76% 0.00 in
02:52 71.8 °F 64.2 °F 30.04 in ESE 2.0 mph 3.0 mph 77% 0.00 in
02:57 71.7 °F 64.1 °F 30.04 in SE 2.0 mph 3.0 mph 77% 0.00 in
03:02 71.5 °F 63.9 °F 30.04 in SE 1.0 mph 2.0 mph 77% 0.00 in
03:07 71.2 °F 63.6 °F 30.03 in SE 3.0 mph 4.0 mph 77% 0.00 in
03:12 71.4 °F 63.8 °F 30.03 in ESE 3.0 mph 4.0 mph 77% 0.00 in
03:17 71.1 °F 63.9 °F 30.03 in ESE 3.0 mph 4.0 mph 78% 0.00 in
03:22 71.1 °F 63.9 °F 30.03 in East 2.0 mph 3.0 mph 78% 0.00 in
03:27 70.9 °F 63.7 °F 30.03 in East 2.0 mph 3.0 mph 78% 0.00 in
03:32 70.8 °F 64.0 °F 30.04 in East 2.0 mph 2.0 mph 79% 0.00 in
03:37 70.7 °F 63.9 °F 30.03 in East 2.0 mph 3.0 mph 79% 0.00 in
03:42 70.5 °F 63.7 °F 30.04 in ESE 2.0 mph 2.0 mph 79% 0.00 in
03:47 70.3 °F 63.8 °F 30.03 in East 2.0 mph 2.0 mph 80% 0.00 in
03:52 70.2 °F 63.8 °F 30.04 in ESE 3.0 mph 3.0 mph 80% 0.00 in
03:57 70.2 °F 64.1 °F 30.04 in ESE 2.0 mph 3.0 mph 81% 0.00 in
04:02 70.1 °F 64.0 °F 30.04 in East 3.0 mph 4.0 mph 81% 0.00 in
04:07 70.0 °F 63.9 °F 30.04 in East 3.0 mph 4.0 mph 81% 0.00 in
04:12 70.0 °F 63.9 °F 30.04 in East 2.0 mph 3.0 mph 81% 0.00 in
04:17 69.9 °F 63.8 °F 30.04 in East 3.0 mph 4.0 mph 81% 0.00 in
04:22 69.8 °F 64.1 °F 30.04 in East 2.0 mph 3.0 mph 82% 0.00 in
04:27 69.6 °F 63.9 °F 30.04 in Calm   2.0 mph 82% 0.00 in
04:32 69.1 °F 63.4 °F 30.04 in Calm     82% 0.00 in
04:37 68.5 °F 63.5 °F 30.04 in Calm   1.0 mph 84% 0.00 in
04:42 68.4 °F 63.7 °F 30.04 in ESE 1.0 mph 2.0 mph 85% 0.00 in
04:47 68.5 °F 63.8 °F 30.04 in Calm   2.0 mph 85% 0.00 in
04:52 68.3 °F 63.3 °F 30.04 in Calm   1.0 mph 84% 0.00 in
04:57 67.8 °F 63.1 °F 30.05 in Calm     85% 0.00 in
05:02 67.3 °F 63.0 °F 30.05 in Calm     86% 0.00 in
05:07 67.1 °F 62.8 °F 30.05 in Calm     86% 0.00 in
05:12 66.6 °F 62.6 °F 30.05 in Calm   1.0 mph 87% 0.00 in
05:18 66.3 °F 62.6 °F 30.05 in Calm     88% 0.00 in
05:23 66.1 °F 62.8 °F 30.05 in East 2.0 mph 3.0 mph 89% 0.00 in
05:28 67.0 °F 63.3 °F 30.06 in East 3.0 mph 3.0 mph 88% 0.00 in
05:33 67.6 °F 63.3 °F 30.06 in ESE 3.0 mph 4.0 mph 86% 0.00 in
05:38 67.7 °F 63.4 °F 30.06 in ESE 2.0 mph 5.0 mph 86% 0.00 in
05:43 67.6 °F 63.3 °F 30.06 in ESE 2.0 mph 3.0 mph 86% 0.00 in
05:48 67.5 °F 63.2 °F 30.06 in ESE 2.0 mph 4.0 mph 86% 0.00 in
05:53 67.3 °F 63.0 °F 30.06 in ESE 2.0 mph 3.0 mph 86% 0.00 in
05:58 67.2 °F 63.2 °F 30.06 in ESE 1.0 mph 3.0 mph 87% 0.00 in
06:03 66.9 °F 62.9 °F 30.06 in ESE 2.0 mph 3.0 mph 87% 0.00 in
06:08 66.7 °F 63.0 °F 30.06 in ESE 3.0 mph 3.0 mph 88% 0.00 in
06:13 66.5 °F 62.8 °F 30.07 in ESE 2.0 mph 4.0 mph 88% 0.00 in
06:18 66.3 °F 62.6 °F 30.07 in East 2.0 mph 3.0 mph 88% 0.00 in
06:23 66.4 °F 62.7 °F 30.07 in ESE 2.0 mph 3.0 mph 88% 0.00 in
06:28 66.3 °F 62.6 °F 30.07 in ESE 3.0 mph 4.0 mph 88% 0.00 in
06:33 66.2 °F 62.5 °F 30.07 in ESE 3.0 mph 5.0 mph 88% 0.00 in
06:38 66.4 °F 62.7 °F 30.07 in East 3.0 mph 4.0 mph 88% 0.00 in
06:43 66.5 °F 62.8 °F 30.07 in East 3.0 mph 4.0 mph 88% 0.00 in
06:48 66.6 °F 62.9 °F 30.07 in East 1.0 mph 2.0 mph 88% 0.00 in
06:53 66.6 °F 62.9 °F 30.07 in Calm   1.0 mph 88% 0.00 in
06:58 66.6 °F 62.6 °F 30.07 in Calm   1.0 mph 87% 0.00 in
07:03 66.3 °F 62.3 °F 30.08 in ENE 1.0 mph 1.0 mph 87% 0.00 in
07:08 66.2 °F 62.5 °F 30.08 in ENE 1.0 mph 1.0 mph 88% 0.00 in
07:13 66.5 °F 62.8 °F 30.08 in East 1.0 mph 2.0 mph 88% 0.00 in
07:18 67.1 °F 63.1 °F 30.08 in ESE 1.0 mph 2.0 mph 87% 0.00 in
07:23 67.6 °F 63.3 °F 30.08 in East 1.0 mph 2.0 mph 86% 0.00 in
07:28 68.1 °F 63.4 °F 30.08 in ESE 3.0 mph 3.0 mph 85% 0.00 in
07:33 68.5 °F 63.5 °F 30.08 in East 3.0 mph 3.0 mph 84% 0.00 in
07:38 69.0 °F 64.0 °F 30.08 in East 2.0 mph 3.0 mph 84% 0.00 in
07:43 69.5 °F 64.5 °F 30.08 in ESE 1.0 mph 2.0 mph 84% 0.00 in
07:48 69.9 °F 64.2 °F 30.08 in ESE 4.0 mph 4.0 mph 82% 0.00 in
07:53 70.3 °F 64.9 °F 30.08 in ESE 3.0 mph 4.0 mph 83% 0.00 in
07:58 70.6 °F 64.1 °F 30.09 in ESE 4.0 mph 6.0 mph 80% 0.00 in
08:03 70.8 °F 64.3 °F 30.09 in East 4.0 mph 7.0 mph 80% 0.00 in
08:08 71.0 °F 64.5 °F 30.09 in SE 4.0 mph 6.0 mph 80% 0.00 in
08:13 71.2 °F 64.4 °F 30.09 in ESE 3.0 mph 7.0 mph 79% 0.00 in
08:18 71.5 °F 64.3 °F 30.09 in SE 4.0 mph 6.0 mph 78% 0.00 in
08:23 71.8 °F 64.6 °F 30.09 in ESE 4.0 mph 7.0 mph 78% 0.00 in
08:28 72.2 °F 64.2 °F 30.09 in East 4.0 mph 6.0 mph 76% 0.00 in
08:33 72.6 °F 64.6 °F 30.09 in ESE 4.0 mph 4.0 mph 76% 0.00 in
08:38 73.2 °F 65.2 °F 30.09 in ESE 4.0 mph 4.0 mph 76% 0.00 in
08:43 73.6 °F 65.9 °F 30.09 in East 5.0 mph 5.0 mph 77% 0.00 in
08:48 73.8 °F 65.0 °F 30.09 in ESE 5.0 mph 5.0 mph 74% 0.00 in
08:53 74.2 °F 65.4 °F 30.09 in East 4.0 mph 5.0 mph 74% 0.00 in
08:58 74.6 °F 65.4 °F 30.09 in ENE 4.0 mph 6.0 mph 73% 0.00 in
09:03 74.8 °F 66.0 °F 30.09 in East 2.0 mph 6.0 mph 74% 0.00 in
09:08 75.3 °F 65.3 °F 30.09 in ESE 4.0 mph 5.0 mph 71% 0.00 in
09:13 75.7 °F 66.0 °F 30.09 in SE 4.0 mph 5.0 mph 72% 0.00 in
09:18 76.2 °F 66.9 °F 30.09 in ENE 3.0 mph 5.0 mph 73% 0.00 in
09:23 76.2 °F 65.7 °F 30.10 in East 3.0 mph 6.0 mph 70% 0.00 in
09:28 76.1 °F 66.0 °F 30.09 in SE 5.0 mph 6.0 mph 71% 0.00 in
09:33 76.2 °F 65.7 °F 30.10 in ESE 4.0 mph 6.0 mph 70% 0.00 in
09:38 76.5 °F 65.6 °F 30.10 in SE 5.0 mph 5.0 mph 69% 0.00 in
09:43 76.7 °F 66.6 °F 30.10 in SE 4.0 mph 6.0 mph 71% 0.00 in
09:48 76.9 °F 66.4 °F 30.10 in ESE 5.0 mph 5.0 mph 70% 0.00 in
09:53 77.3 °F 66.3 °F 30.10 in SSE 5.0 mph 6.0 mph 69% 0.00 in
09:58 77.8 °F 66.0 °F 30.10 in SSE 5.0 mph 5.0 mph 67% 0.00 in
10:03 78.3 °F 66.0 °F 30.10 in East 3.0 mph 5.0 mph 66% 0.00 in
10:08 78.5 °F 65.8 °F 30.10 in SE 4.0 mph 6.0 mph 65% 0.00 in
10:13 78.7 °F 66.8 °F 30.10 in SSE 3.0 mph 6.0 mph 67% 0.00 in
10:18 79.0 °F 65.8 °F 30.10 in SSW 3.0 mph 5.0 mph 64% 0.00 in
10:23 79.9 °F 66.7 °F 30.10 in East 2.0 mph 4.0 mph 64% 0.00 in
10:29 80.5 °F 66.3 °F 30.10 in SW 2.0 mph 4.0 mph 62% 0.00 in
10:34 80.8 °F 66.6 °F 30.10 in SSW 5.0 mph 6.0 mph 62% 0.00 in
10:39 80.9 °F 65.2 °F 30.10 in WSW 2.0 mph 5.0 mph 59% 0.00 in
10:44 81.4 °F 67.1 °F 30.10 in SW 2.0 mph 3.0 mph 62% 0.00 in
10:49 82.0 °F 66.8 °F 30.10 in SSW 3.0 mph 4.0 mph 60% 0.00 in
10:54 82.3 °F 66.6 °F 30.10 in SSW 4.0 mph 7.0 mph 59% 0.00 in
10:59 82.2 °F 65.5 °F 30.10 in SSE 1.0 mph 6.0 mph 57% 0.00 in
11:04 82.7 °F 66.4 °F 30.10 in SE 5.0 mph 5.0 mph 58% 0.00 in
11:09 82.7 °F 64.9 °F 30.10 in WSW 3.0 mph 6.0 mph 55% 0.00 in
11:14 83.0 °F 65.2 °F 30.10 in SSW 5.0 mph 6.0 mph 55% 0.00 in
11:19 83.0 °F 65.2 °F 30.10 in South 9.0 mph 9.0 mph 55% 0.00 in
11:24 83.0 °F 64.7 °F 30.10 in SSW 7.0 mph 7.0 mph 54% 0.00 in
11:29 82.9 °F 64.6 °F 30.10 in SE 11.0 mph 11.0 mph 54% 0.00 in
11:34 82.3 °F 65.1 °F 30.10 in SE 7.0 mph 9.0 mph 56% 0.00 in
11:39 82.5 °F 65.8 °F 30.09 in SSE 4.0 mph 6.0 mph 57% 0.00 in
11:44 83.0 °F 64.1 °F 30.09 in ESE 3.0 mph 8.0 mph 53% 0.00 in
11:49 83.1 °F 65.3 °F 30.09 in SSE 2.0 mph 5.0 mph 55% 0.00 in
11:54 83.4 °F 65.6 °F 30.10 in SE 3.0 mph 8.0 mph 55% 0.00 in
11:59 83.7 °F 64.8 °F 30.10 in SSE 5.0 mph 10.0 mph 53% 0.00 in
12:04 83.8 °F 64.9 °F 30.10 in SW 2.0 mph 6.0 mph 53% 0.00 in
12:09 83.9 °F 63.8 °F 30.10 in South 2.0 mph 8.0 mph 51% 0.00 in
12:14 84.1 °F 65.1 °F 30.09 in ESE 6.0 mph 9.0 mph 53% 0.00 in
12:19 83.9 °F 64.9 °F 30.09 in SW 3.0 mph 6.0 mph 53% 0.00 in
12:24 84.2 °F 64.1 °F 30.09 in SW 7.0 mph 7.0 mph 51% 0.00 in
12:29 84.7 °F 65.1 °F 30.09 in SE 6.0 mph 6.0 mph 52% 0.00 in
12:34 84.6 °F 62.8 °F 30.09 in East 4.0 mph 9.0 mph 48% 0.00 in
12:39 84.2 °F 64.1 °F 30.09 in SE 2.0 mph 2.0 mph 51% 0.00 in
12:44 84.6 °F 63.9 °F 30.09 in South 10.0 mph 10.0 mph 50% 0.00 in
12:49 84.5 °F 62.7 °F 30.09 in SSW 2.0 mph 9.0 mph 48% 0.00 in
12:54 84.8 °F 64.1 °F 30.09 in South 5.0 mph 8.0 mph 50% 0.00 in
12:59 84.8 °F 63.0 °F 30.09 in SSW 4.0 mph 7.0 mph 48% 0.00 in
13:04 84.7 °F 62.9 °F 30.09 in SSW 3.0 mph 8.0 mph 48% 0.00 in
13:09 84.8 °F 63.0 °F 30.08 in SSW 5.0 mph 11.0 mph 48% 0.00 in
13:14 84.9 °F 64.2 °F 30.08 in SE 4.0 mph 5.0 mph 50% 0.00 in
13:19 85.2 °F 62.7 °F 30.08 in SE 6.0 mph 10.0 mph 47% 0.00 in
13:24 85.2 °F 63.9 °F 30.08 in SSE 5.0 mph 9.0 mph 49% 0.00 in
13:29 85.5 °F 63.6 °F 30.08 in SE 3.0 mph 9.0 mph 48% 0.00 in
13:34 85.1 °F 62.0 °F 30.08 in ENE 2.0 mph 7.0 mph 46% 0.00 in
13:39 84.9 °F 63.6 °F 30.08 in SE 3.0 mph 4.0 mph 49% 0.00 in
13:44 85.1 °F 63.2 °F 30.08 in SSE 6.0 mph 10.0 mph 48% 0.00 in
13:49 85.0 °F 64.3 °F 30.08 in SSE 3.0 mph 9.0 mph 50% 0.00 in
13:54 85.4 °F 64.7 °F 30.07 in ENE 1.0 mph 5.0 mph 50% 0.00 in
13:59 86.1 °F 63.5 °F 30.07 in Calm   4.0 mph 47% 0.00 in
14:04 85.9 °F 64.0 °F 30.07 in SE 7.0 mph 9.0 mph 48% 0.00 in
14:09 84.8 °F 63.0 °F 30.07 in Calm   6.0 mph 48% 0.00 in
14:14 84.7 °F 65.1 °F 30.07 in SSW 1.0 mph 5.0 mph 52% 0.00 in
14:19 85.0 °F 64.9 °F 30.07 in ESE 13.0 mph 13.0 mph 51% 0.00 in
14:24 84.7 °F 62.9 °F 30.07 in SE 6.0 mph 10.0 mph 48% 0.00 in
14:29 84.5 °F 63.3 °F 30.06 in ENE 3.0 mph 10.0 mph 49% 0.00 in
14:34 85.3 °F 64.6 °F 30.06 in ESE 8.0 mph 8.0 mph 50% 0.00 in
14:39 85.4 °F 63.5 °F 30.06 in ENE 4.0 mph 10.0 mph 48% 0.00 in
14:44 85.3 °F 65.1 °F 30.06 in ESE 2.0 mph 7.0 mph 51% 0.00 in
14:49 85.6 °F 63.1 °F 30.06 in East 7.0 mph 10.0 mph 47% 0.00 in
14:54 85.5 °F 64.2 °F 30.05 in East 1.0 mph 8.0 mph 49% 0.00 in
15:00 85.9 °F 63.3 °F 30.05 in East 7.0 mph 9.0 mph 47% 0.00 in
15:04 86.3 °F 63.7 °F 30.05 in SSE 7.0 mph 9.0 mph 47% 0.00 in
15:09 86.4 °F 63.2 °F 30.05 in East 10.0 mph 13.0 mph 46% 0.00 in
15:15 86.2 °F 62.4 °F 30.05 in SE 5.0 mph 8.0 mph 45% 0.00 in
15:20 86.5 °F 63.9 °F 30.05 in ESE 1.0 mph 8.0 mph 47% 0.00 in
15:25 87.0 °F 63.7 °F 30.05 in East 5.0 mph 10.0 mph 46% 0.00 in
15:30 86.5 °F 64.5 °F 30.05 in ESE 4.0 mph 9.0 mph 48% 0.00 in
15:35 86.7 °F 63.5 °F 30.04 in SE 4.0 mph 9.0 mph 46% 0.00 in
15:40 86.6 °F 62.8 °F 30.04 in Calm   6.0 mph 45% 0.00 in
15:45 87.2 °F 63.9 °F 30.04 in ESE 6.0 mph 6.0 mph 46% 0.00 in
15:50 87.0 °F 63.1 °F 30.04 in SE 6.0 mph 6.0 mph 45% 0.00 in
15:55 86.5 °F 64.5 °F 30.04 in ESE 1.0 mph 8.0 mph 48% 0.00 in
16:00 86.5 °F 64.5 °F 30.04 in ESE 7.0 mph 8.0 mph 48% 0.00 in
16:05 86.1 °F 62.3 °F 30.04 in ESE 3.0 mph 6.0 mph 45% 0.00 in
16:10 85.9 °F 63.3 °F 30.04 in East 2.0 mph 4.0 mph 47% 0.00 in
16:15 85.5 °F 62.4 °F 30.04 in Calm   8.0 mph 46% 0.00 in
16:20 85.6 °F 63.1 °F 30.04 in ESE 2.0 mph 5.0 mph 47% 0.00 in
16:25 85.4 °F 63.5 °F 30.04 in SE 3.0 mph 5.0 mph 48% 0.00 in
16:30 85.6 °F 64.3 °F 30.03 in SE 2.0 mph 3.0 mph 49% 0.00 in
16:35 86.4 °F 63.8 °F 30.03 in West 1.0 mph 3.0 mph 47% 0.00 in
16:40 87.4 °F 67.6 °F 30.03 in SE 3.0 mph 5.0 mph 52% 0.00 in
16:45 87.4 °F 64.1 °F 30.02 in ENE 3.0 mph 5.0 mph 46% 0.00 in
16:50 87.5 °F 64.2 °F 30.02 in ESE 7.0 mph 9.0 mph 46% 0.00 in
16:55 87.3 °F 64.0 °F 30.02 in East 2.0 mph 4.0 mph 46% 0.00 in
17:00 87.6 °F 63.7 °F 30.02 in NW 1.0 mph 7.0 mph 45% 0.00 in
17:05 87.8 °F 63.8 °F 30.02 in SSE 7.0 mph 7.0 mph 45% 0.00 in
17:10 88.1 °F 63.5 °F 30.02 in ESE 5.0 mph 7.0 mph 44% 0.00 in
17:15 87.9 °F 63.3 °F 30.02 in ESE 5.0 mph 8.0 mph 44% 0.00 in
17:20 88.0 °F 64.7 °F 30.02 in East 3.0 mph 9.0 mph 46% 0.00 in
17:25 87.5 °F 64.2 °F 30.02 in ENE 5.0 mph 6.0 mph 46% 0.00 in
17:30 87.3 °F 64.6 °F 30.02 in ESE 2.0 mph 8.0 mph 47% 0.00 in
17:35 86.8 °F 63.6 °F 30.02 in SE 2.0 mph 7.0 mph 46% 0.00 in
17:40 86.5 °F 63.3 °F 30.01 in NE 4.0 mph 5.0 mph 46% 0.00 in
17:45 87.1 °F 63.2 °F 30.01 in East 5.0 mph 10.0 mph 45% 0.00 in
17:50 87.5 °F 64.8 °F 30.01 in ENE 2.0 mph 6.0 mph 47% 0.00 in
17:55 87.6 °F 63.7 °F 30.01 in ESE 5.0 mph 8.0 mph 45% 0.00 in
18:00 87.6 °F 64.3 °F 30.01 in ENE 3.0 mph 6.0 mph 46% 0.00 in
18:05 87.5 °F 63.6 °F 30.01 in SE 5.0 mph 6.0 mph 45% 0.00 in
18:10 87.0 °F 63.7 °F 30.01 in ESE 3.0 mph 7.0 mph 46% 0.00 in
18:15 86.7 °F 64.1 °F 30.01 in SE 1.0 mph 3.0 mph 47% 0.00 in
18:20 87.1 °F 65.6 °F 30.00 in ESE 6.0 mph 6.0 mph 49% 0.00 in
18:25 86.9 °F 64.3 °F 30.00 in ESE 7.0 mph 7.0 mph 47% 0.00 in
18:30 86.7 °F 65.3 °F 30.00 in SE 5.0 mph 6.0 mph 49% 0.00 in
18:35 86.6 °F 65.2 °F 30.00 in SE 3.0 mph 5.0 mph 49% 0.00 in
18:40 86.5 °F 63.9 °F 30.00 in SE 5.0 mph 5.0 mph 47% 0.00 in
18:45 86.4 °F 64.4 °F 30.00 in East 4.0 mph 6.0 mph 48% 0.00 in
18:50 86.4 °F 64.4 °F 30.00 in SSE 4.0 mph 5.0 mph 48% 0.00 in
18:55 86.6 °F 64.0 °F 29.99 in East 3.0 mph 5.0 mph 47% 0.00 in
19:00 86.6 °F 64.6 °F 30.00 in SE 4.0 mph 5.0 mph 48% 0.00 in
19:05 86.6 °F 64.6 °F 29.99 in ESE 4.0 mph 5.0 mph 48% 0.00 in
19:11 86.7 °F 65.3 °F 29.99 in East 4.0 mph 6.0 mph 49% 0.00 in
19:16 86.5 °F 65.1 °F 29.99 in ENE 4.0 mph 6.0 mph 49% 0.00 in
19:21 86.5 °F 66.2 °F 29.99 in ESE 1.0 mph 4.0 mph 51% 0.00 in
19:26 86.6 °F 65.8 °F 29.99 in ESE 3.0 mph 3.0 mph 50% 0.00 in
19:31 86.5 °F 66.2 °F 29.99 in ESE 2.0 mph 4.0 mph 51% 0.00 in
19:36 86.4 °F 66.2 °F 29.99 in SE 2.0 mph 4.0 mph 51% 0.00 in
19:41 86.3 °F 66.6 °F 29.99 in ESE 2.0 mph 4.0 mph 52% 0.00 in
19:46 86.2 °F 66.0 °F 29.99 in ESE 3.0 mph 4.0 mph 51% 0.00 in
19:51 86.1 °F 67.0 °F 29.98 in SE 1.0 mph 4.0 mph 53% 0.00 in
19:56 86.0 °F 66.3 °F 29.98 in SE 3.0 mph 4.0 mph 52% 0.00 in
20:01 85.8 °F 67.2 °F 29.98 in SE 3.0 mph 3.0 mph 54% 0.00 in
20:06 85.5 °F 66.4 °F 29.98 in SE 2.0 mph 4.0 mph 53% 0.00 in
20:11 85.3 °F 66.8 °F 29.98 in SE 3.0 mph 3.0 mph 54% 0.00 in
20:16 85.1 °F 67.1 °F 29.98 in SE 2.0 mph 3.0 mph 55% 0.00 in
20:21 84.8 °F 67.4 °F 29.98 in SE 1.0 mph 3.0 mph 56% 0.00 in
20:26 84.5 °F 67.1 °F 29.98 in SE 2.0 mph 2.0 mph 56% 0.00 in
20:31 84.2 °F 67.8 °F 29.98 in Calm   1.0 mph 58% 0.00 in
20:36 84.0 °F 67.7 °F 29.98 in ESE 1.0 mph 1.0 mph 58% 0.00 in
20:41 83.7 °F 68.3 °F 29.98 in Calm   1.0 mph 60% 0.00 in
20:46 83.3 °F 68.0 °F 29.98 in ESE 1.0 mph 1.0 mph 60% 0.00 in
20:51 82.9 °F 68.6 °F 29.98 in Calm   1.0 mph 62% 0.00 in
20:56 82.1 °F 68.3 °F 29.98 in Calm     63% 0.00 in
21:01 81.3 °F 68.4 °F 29.98 in Calm     65% 0.00 in
21:06 80.4 °F 68.0 °F 29.98 in Calm     66% 0.00 in
21:11 79.8 °F 68.3 °F 29.98 in Calm   1.0 mph 68% 0.00 in
21:16 79.2 °F 68.2 °F 29.98 in Calm   1.0 mph 69% 0.00 in
21:21 78.6 °F 68.0 °F 29.99 in Calm     70% 0.00 in
21:26 78.3 °F 67.7 °F 29.98 in Calm   1.0 mph 70% 0.00 in
21:31 78.4 °F 67.8 °F 29.98 in Calm   1.0 mph 70% 0.00 in
21:36 78.3 °F 67.7 °F 29.98 in Calm     70% 0.00 in
21:41 78.0 °F 67.8 °F 29.98 in Calm     71% 0.00 in
21:47 77.2 °F 67.5 °F 29.98 in Calm     72% 0.00 in
21:52 76.4 °F 67.1 °F 29.98 in Calm     73% 0.00 in
21:57 75.9 °F 67.4 °F 29.99 in Calm     75% 0.00 in
22:02 75.8 °F 67.3 °F 29.99 in Calm     75% 0.00 in
22:07 75.6 °F 67.1 °F 29.99 in Calm     75% 0.00 in
22:12 75.2 °F 66.7 °F 29.98 in Calm     75% 0.00 in
22:17 74.7 °F 66.6 °F 29.99 in Calm     76% 0.00 in
22:22 74.4 °F 67.1 °F 29.99 in Calm     78% 0.00 in
22:27 74.1 °F 66.8 °F 29.99 in Calm     78% 0.00 in
22:32 73.7 °F 66.8 °F 29.99 in Calm     79% 0.00 in
22:37 73.5 °F 67.0 °F 29.99 in Calm     80% 0.00 in
22:42 73.5 °F 66.6 °F 30.00 in Calm     79% 0.00 in
22:47 73.2 °F 66.7 °F 30.00 in Calm     80% 0.00 in
22:52 72.8 °F 66.6 °F 30.00 in Calm     81% 0.00 in
22:57 72.9 °F 66.7 °F 30.00 in Calm   1.0 mph 81% 0.00 in
23:02 72.9 °F 66.7 °F 30.00 in Calm     81% 0.00 in
23:07 72.7 °F 66.5 °F 30.00 in Calm     81% 0.00 in
23:12 72.9 °F 67.1 °F 30.00 in Calm     82% 0.00 in
23:17 73.1 °F 66.9 °F 30.00 in Calm   1.0 mph 81% 0.00 in
23:22 73.5 °F 67.3 °F 30.00 in ESE 1.0 mph 1.0 mph 81% 0.00 in
23:27 73.7 °F 67.2 °F 30.00 in Calm     80% 0.00 in
23:32 73.5 °F 67.0 °F 30.00 in ESE 1.0 mph 2.0 mph 80% 0.00 in
23:37 73.4 °F 66.9 °F 30.00 in Calm     80% 0.00 in
23:42 73.1 °F 66.6 °F 30.00 in Calm     80% 0.00 in
23:47 73.2 °F 66.7 °F 30.00 in Calm   1.0 mph 80% 0.00 in
23:52 73.2 °F 66.3 °F 30.00 in Calm   1.0 mph 79% 0.00 in
23:57 73.0 °F 66.5 °F 30.00 in Calm     80% 0.00 in
Compliments of Weather Underground